Time;durP1;ratioP1;P1;durP2;ratioP2;P2;SDS_P1;SDS_P2;PMS_P1;PMS_P2;Temp;Humidity;BMP_temperature;BMP_pressure;BME280_temperature;BME280_humidity;BME280_pressure;Samples;Min_cycle;Max_cycle;Signal;HPM_P1;HPM_P2
2022/02/08 00:01:41;;;;;;;10.00;2.77;;;;;;;;;;5081105;28;20202;-70
2022/02/08 00:04:11;;;;;;;4.57;2.80;;;;;;;;;;5080848;28;20637;-70
2022/02/08 00:06:43;;;;;;;6.30;2.90;;;;;;;;;;5080515;28;20230;-70
2022/02/08 00:09:13;;;;;;;7.57;3.00;;;;;;;;;;5080848;28;20220;-70
2022/02/08 00:11:41;;;;;;;7.37;2.80;;;;;;;;;;5068316;28;20452;-70
2022/02/08 00:14:09;;;;;;;7.33;3.17;;;;;;;;;;5080414;28;20212;-71
2022/02/08 00:16:37;;;;;;;5.43;2.90;;;;;;;;;;5080375;28;20218;-70
2022/02/08 00:19:05;;;;;;;10.40;2.80;;;;;;;;;;5080501;28;20463;-71
2022/02/08 00:21:34;;;;;;;9.47;3.33;;;;;;;;;;5080057;28;20229;-71
2022/02/08 00:24:02;;;;;;;6.13;2.73;;;;;;;;;;5080625;28;20940;-70
2022/02/08 00:26:30;;;;;;;7.57;2.87;;;;;;;;;;5080096;28;20237;-70
2022/02/08 00:28:58;;;;;;;5.10;2.47;;;;;;;;;;5080367;28;20450;-70
2022/02/08 00:31:26;;;;;;;4.90;2.33;;;;;;;;;;5080452;28;20210;-69
2022/02/08 00:33:54;;;;;;;8.27;3.10;;;;;;;;;;5080152;28;20208;-69
2022/02/08 00:36:22;;;;;;;5.43;2.30;;;;;;;;;;5080266;28;20456;-69
2022/02/08 00:38:53;;;;;;;7.07;2.87;;;;;;;;;;5079827;28;20448;-69
2022/02/08 00:41:23;;;;;;;9.30;2.20;;;;;;;;;;5080501;28;20206;-69
2022/02/08 00:43:57;;;;;;;5.30;2.80;;;;;;;;;;5079981;28;20448;-69
2022/02/08 00:46:32;;;;;;;5.00;2.70;;;;;;;;;;5080084;28;20547;-69
2022/02/08 00:49:02;;;;;;;7.63;2.67;;;;;;;;;;5088883;28;20484;-69
2022/02/08 00:51:39;;;;;;;5.90;2.50;;;;;;;;;;5120405;28;20200;-69
2022/02/08 00:54:09;;;;;;;10.50;3.27;;;;;;;;;;5120282;28;20446;-69
2022/02/08 00:56:37;;;;;;;4.70;2.23;;;;;;;;;;5120404;28;20827;-69
2022/02/08 00:59:07;;;;;;;8.67;3.93;;;;;;;;;;5120211;28;20458;-69
2022/02/08 01:01:37;;;;;;;5.83;2.13;;;;;;;;;;5117595;28;20446;-69
2022/02/08 01:04:05;;;;;;;7.40;2.53;;;;;;;;;;5119723;28;20803;-69
2022/02/08 01:06:34;;;;;;;7.97;2.67;;;;;;;;;;5119837;28;20486;-69
2022/02/08 01:09:11;;;;;;;6.00;2.40;;;;;;;;;;5119428;28;20455;-70
2022/02/08 01:11:42;;;;;;;7.07;2.40;;;;;;;;;;5119340;28;20439;-70
2022/02/08 01:14:10;;;;;;;10.17;3.10;;;;;;;;;;5120153;28;20438;-69
2022/02/08 01:16:38;;;;;;;7.70;3.20;;;;;;;;;;5120036;28;20469;-69
2022/02/08 01:19:06;;;;;;;7.17;2.80;;;;;;;;;;5113623;28;20942;-69
2022/02/08 01:21:34;;;;;;;6.63;2.53;;;;;;;;;;5119477;28;20439;-69
2022/02/08 01:24:03;;;;;;;7.00;2.27;;;;;;;;;;5119475;28;20956;-69
2022/02/08 01:26:33;;;;;;;4.83;2.33;;;;;;;;;;5119894;28;20466;-69
2022/02/08 01:29:16;;;;;;;5.23;2.97;;;;;;;;;;5119743;28;20445;-69
2022/02/08 01:31:46;;;;;;;4.77;2.03;;;;;;;;;;5119963;28;20442;-69
2022/02/08 01:34:29;;;;;;;4.07;2.77;;;;;;;;;;5119611;28;20449;-68
2022/02/08 01:37:10;;;;;;;3.20;1.90;;;;;;;;;;5119374;28;20822;-69
2022/02/08 01:39:47;;;;;;;5.43;2.40;;;;;;;;;;5119636;28;20455;-68
2022/02/08 01:42:26;;;;;;;5.10;1.90;;;;;;;;;;5119760;28;20442;-69
2022/02/08 01:45:14;;;;;;;4.30;2.20;;;;;;;;;;5119393;28;20446;-69
2022/02/08 01:47:49;;;;;;;4.37;2.07;;;;;;;;;;5119334;27;20485;-69
2022/02/08 01:50:17;;;;;;;5.90;2.00;;;;;;;;;;5118859;28;20473;-68
2022/02/08 01:52:45;;;;;;;6.53;2.33;;;;;;;;;;5119329;28;20474;-68
2022/02/08 01:55:16;;;;;;;6.23;2.27;;;;;;;;;;5119151;28;21001;-67
2022/02/08 01:57:46;;;;;;;5.17;1.80;;;;;;;;;;5119182;28;20827;-68
2022/02/08 02:00:16;;;;;;;3.90;2.10;;;;;;;;;;5119115;28;20945;-68
2022/02/08 02:02:45;;;;;;;2.80;1.33;;;;;;;;;;5119276;28;20948;-69
2022/02/08 02:05:13;;;;;;;7.00;2.23;;;;;;;;;;5118926;28;20447;-69
2022/02/08 02:07:47;;;;;;;3.33;2.10;;;;;;;;;;5119111;28;20486;-70
2022/02/08 02:10:15;;;;;;;7.13;2.10;;;;;;;;;;5118965;28;20947;-72
2022/02/08 02:12:55;;;;;;;6.23;1.90;;;;;;;;;;5119144;28;20446;-69
2022/02/08 02:15:25;;;;;;;6.17;2.03;;;;;;;;;;5119045;28;20443;-70
2022/02/08 02:17:53;;;;;;;6.27;2.10;;;;;;;;;;5119068;28;20455;-69
2022/02/08 02:20:21;;;;;;;3.47;2.10;;;;;;;;;;5113179;28;20463;-70
2022/02/08 02:22:49;;;;;;;3.30;2.07;;;;;;;;;;5118997;28;20787;-69
2022/02/08 02:25:22;;;;;;;3.97;1.93;;;;;;;;;;5119019;28;20453;-70
2022/02/08 02:27:53;;;;;;;4.27;2.03;;;;;;;;;;5119128;28;20489;-69
2022/02/08 02:30:21;;;;;;;7.67;2.00;;;;;;;;;;5118765;28;20447;-70
2022/02/08 02:32:50;;;;;;;10.47;2.50;;;;;;;;;;5118906;28;20445;-70
2022/02/08 02:35:18;;;;;;;3.93;1.83;;;;;;;;;;5118437;28;20451;-70
2022/02/08 02:37:58;;;;;;;3.43;2.10;;;;;;;;;;5118719;28;20515;-70
2022/02/08 02:40:30;;;;;;;6.90;2.27;;;;;;;;;;5118145;28;20821;-70
2022/02/08 02:42:58;;;;;;;4.00;1.83;;;;;;;;;;5118515;28;20447;-70
2022/02/08 02:45:26;;;;;;;4.17;2.00;;;;;;;;;;5118377;28;20457;-69
2022/02/08 02:47:55;;;;;;;4.90;2.30;;;;;;;;;;5118406;28;20479;-70
2022/02/08 02:50:24;;;;;;;5.60;2.33;;;;;;;;;;5117629;28;20894;-70
2022/02/08 02:52:52;;;;;;;4.30;2.43;;;;;;;;;;5115205;28;20457;-70
2022/02/08 02:55:20;;;;;;;4.20;1.93;;;;;;;;;;5118290;28;20434;-70
2022/02/08 02:57:53;;;;;;;6.53;2.20;;;;;;;;;;5117867;28;20486;-70
2022/02/08 03:00:36;;;;;;;3.97;1.70;;;;;;;;;;5118586;28;20449;-69
2022/02/08 03:03:15;;;;;;;6.43;2.00;;;;;;;;;;5118122;28;20450;-70
2022/02/08 03:19:30;;;;;;;9.67;2.73;;;;;;;;;;5117933;28;20453;-69
2022/02/08 03:21:58;;;;;;;3.73;1.70;;;;;;;;;;5117649;28;20457;-70
2022/02/08 03:24:26;;;;;;;4.93;2.50;;;;;;;;;;5117735;28;20510;-70
2022/02/08 03:26:54;;;;;;;3.07;2.00;;;;;;;;;;5117591;28;20466;-70
2022/02/08 03:29:24;;;;;;;3.70;2.13;;;;;;;;;;5117893;28;20490;-70
2022/02/08 03:31:52;;;;;;;2.33;2.13;;;;;;;;;;5117640;28;20447;-70
2022/02/08 03:34:19;;;;;;;3.23;1.97;;;;;;;;;;5117328;28;20870;-70
2022/02/08 03:36:50;;;;;;;3.63;1.60;;;;;;;;;;5117416;28;20463;-70
2022/02/08 03:39:21;;;;;;;5.07;2.07;;;;;;;;;;5117413;28;20817;-70
2022/02/08 03:41:53;;;;;;;4.60;2.27;;;;;;;;;;5117851;28;20444;-70
2022/02/08 03:44:30;;;;;;;5.60;2.30;;;;;;;;;;5117697;28;20451;-70
2022/02/08 03:47:05;;;;;;;3.97;2.40;;;;;;;;;;5118551;28;20554;-70
2022/02/08 03:49:33;;;;;;;12.17;2.73;;;;;;;;;;5117089;28;20482;-70
2022/02/08 03:52:05;;;;;;;5.00;2.47;;;;;;;;;;5117630;28;20811;-70
2022/02/08 03:54:33;;;;;;;6.97;3.10;;;;;;;;;;5117358;28;20833;-70
2022/02/08 03:57:03;;;;;;;5.23;2.87;;;;;;;;;;5117746;28;20459;-70
2022/02/08 03:59:31;;;;;;;7.30;2.97;;;;;;;;;;5117400;28;20457;-70
2022/02/08 04:02:14;;;;;;;4.67;2.77;;;;;;;;;;5117583;28;20442;-70
2022/02/08 04:04:53;;;;;;;5.30;2.83;;;;;;;;;;5117319;28;20457;-70
2022/02/08 04:07:25;;;;;;;10.87;3.50;;;;;;;;;;5117650;28;20494;-70
2022/02/08 04:09:59;;;;;;;7.60;3.17;;;;;;;;;;5117232;28;20480;-70
2022/02/08 04:12:35;;;;;;;10.67;3.97;;;;;;;;;;5117752;28;20521;-70
2022/02/08 04:15:27;;;;;;;4.70;2.40;;;;;;;;;;5117505;28;20808;-70
2022/02/08 04:34:53;;;;;;;8.40;2.30;;;;;;;;;;5057574;28;21043;-70
2022/02/08 04:40:33;;;;;;;8.77;2.63;;;;;;;;;;5119614;28;20431;-70
2022/02/08 04:43:12;;;;;;;5.70;2.67;;;;;;;;;;5120651;28;20442;-70
2022/02/08 04:45:45;;;;;;;5.23;2.77;;;;;;;;;;5120992;28;20446;-71
2022/02/08 04:48:25;;;;;;;4.20;2.57;;;;;;;;;;5120541;27;20446;-70
2022/02/08 04:51:05;;;;;;;7.70;2.57;;;;;;;;;;5120767;28;20453;-70
2022/02/08 04:53:38;;;;;;;4.53;2.40;;;;;;;;;;5119986;28;20481;-70
2022/02/08 04:56:15;;;;;;;6.77;2.67;;;;;;;;;;5120286;28;21087;-70
2022/02/08 04:58:48;;;;;;;8.00;2.70;;;;;;;;;;5120337;28;20446;-71
2022/02/08 05:01:22;;;;;;;5.77;2.67;;;;;;;;;;5120304;28;20841;-70
2022/02/08 05:37:37;;;;;;;8.77;2.60;;;;;;;;;;5119134;28;20481;-74
2022/02/08 05:43:10;;;;;;;5.27;2.80;;;;;;;;;;5119518;28;20454;-74
2022/02/08 05:46:00;;;;;;;2.90;2.10;;;;;;;;;;5119549;27;20450;-74
2022/02/08 05:48:30;;;;;;;6.73;2.17;;;;;;;;;;5118487;28;20442;-75
2022/02/08 05:51:01;;;;;;;4.17;1.70;;;;;;;;;;5124715;27;20449;-75
2022/02/08 05:53:31;;;;;;;7.77;2.47;;;;;;;;;;5127193;27;20455;-75
2022/02/08 05:56:00;;;;;;;6.03;2.60;;;;;;;;;;5125158;27;20458;-76
2022/02/08 05:58:28;;;;;;;5.47;2.03;;;;;;;;;;5116295;27;20458;-74
2022/02/08 06:00:57;;;;;;;4.50;2.00;;;;;;;;;;5109991;28;20451;-75
2022/02/08 06:03:25;;;;;;;5.60;2.23;;;;;;;;;;5110175;28;20443;-75
2022/02/08 06:05:53;;;;;;;5.77;2.27;;;;;;;;;;5114163;28;20438;-75
2022/02/08 06:08:21;;;;;;;6.03;2.17;;;;;;;;;;5120828;27;20463;-76
2022/02/08 06:10:51;;;;;;;5.27;2.20;;;;;;;;;;5124674;27;20553;-76
2022/02/08 06:13:21;;;;;;;9.93;3.20;;;;;;;;;;5127840;27;20449;-76
2022/02/08 06:15:59;;;;;;;5.90;2.83;;;;;;;;;;5124915;27;20444;-76
2022/02/08 06:18:27;;;;;;;29.33;9.63;;;;;;;;;;5117912;27;20520;-76
2022/02/08 06:20:55;;;;;;;9.57;5.00;;;;;;;;;;5118608;28;20439;-77
2022/02/08 06:23:23;;;;;;;7.57;3.30;;;;;;;;;;5118943;28;20453;-76
2022/02/08 06:25:52;;;;;;;12.70;3.67;;;;;;;;;;5120013;28;20447;-76
2022/02/08 06:28:23;;;;;;;5.60;2.37;;;;;;;;;;5113418;28;20454;-77
2022/02/08 06:30:51;;;;;;;9.77;2.90;;;;;;;;;;5111896;28;20536;-77
2022/02/08 06:33:19;;;;;;;4.37;2.70;;;;;;;;;;5105742;28;20447;-77
2022/02/08 06:35:47;;;;;;;3.77;2.47;;;;;;;;;;5118328;28;20451;-77
2022/02/08 06:38:17;;;;;;;7.23;3.10;;;;;;;;;;5116301;28;20460;-76
2022/02/08 06:40:49;;;;;;;7.77;2.57;;;;;;;;;;5118682;28;20455;-77
2022/02/08 06:43:17;;;;;;;6.33;2.63;;;;;;;;;;5112482;28;20458;-76
2022/02/08 06:45:47;;;;;;;6.20;2.93;;;;;;;;;;5109763;28;20446;-76
2022/02/08 06:48:15;;;;;;;4.27;2.47;;;;;;;;;;5117391;28;20949;-76
2022/02/08 06:50:43;;;;;;;4.77;3.00;;;;;;;;;;5117884;28;20489;-76
2022/02/08 06:53:11;;;;;;;6.73;3.20;;;;;;;;;;5104621;28;20450;-76
2022/02/08 06:55:39;;;;;;;7.07;3.63;;;;;;;;;;5108093;27;20454;-76
2022/02/08 06:58:09;;;;;;;8.33;3.83;;;;;;;;;;5120448;27;20434;-76
2022/02/08 07:00:39;;;;;;;4.90;4.07;;;;;;;;;;5122061;27;20808;-76
2022/02/08 07:03:10;;;;;;;8.23;3.73;;;;;;;;;;5124786;27;20977;-76
2022/02/08 07:05:38;;;;;;;8.80;4.13;;;;;;;;;;5124228;27;20438;-76
2022/02/08 07:08:06;;;;;;;11.07;3.97;;;;;;;;;;5123086;27;20804;-72
2022/02/08 07:10:34;;;;;;;8.23;4.20;;;;;;;;;;5115360;28;20478;-72
2022/02/08 07:13:06;;;;;;;11.83;3.30;;;;;;;;;;5105286;28;20459;-72
2022/02/08 07:15:34;;;;;;;5.20;3.97;;;;;;;;;;5101636;28;20442;-72
2022/02/08 07:18:03;;;;;;;7.20;3.30;;;;;;;;;;5117743;28;20443;-72
2022/02/08 07:20:34;;;;;;;8.00;3.93;;;;;;;;;;5114970;28;20453;-71
2022/02/08 07:23:02;;;;;;;9.50;3.87;;;;;;;;;;5121473;28;20481;-71
2022/02/08 07:25:34;;;;;;;5.47;2.90;;;;;;;;;;5123314;28;20812;-72
2022/02/08 07:28:02;;;;;;;10.17;3.60;;;;;;;;;;5123126;28;20811;-72
2022/02/08 07:30:32;;;;;;;10.10;3.30;;;;;;;;;;5118034;28;20479;-72
2022/02/08 07:33:00;;;;;;;3.60;2.67;;;;;;;;;;5122268;28;20442;-72
2022/02/08 07:35:33;;;;;;;8.03;3.87;;;;;;;;;;5120113;28;20550;-72
2022/02/08 07:38:08;;;;;;;10.27;3.47;;;;;;;;;;5126686;27;20916;-73
2022/02/08 07:41:35;;;;;;;12.67;4.67;;;;;;;;;;5116965;28;20438;-71
2022/02/08 07:43:33;;;;;;;6.43;3.80;;;;;;;;;;5117328;28;20481;-72
2022/02/08 07:46:01;;;;;;;8.13;4.07;;;;;;;;;;5116369;28;20489;-73
2022/02/08 07:48:29;;;;;;;14.90;4.33;;;;;;;;;;5117313;28;20518;-72
2022/02/08 07:50:57;;;;;;;17.23;6.37;;;;;;;;;;5104999;28;20490;-72
2022/02/08 07:53:28;;;;;;;14.90;5.27;;;;;;;;;;5117156;28;20435;-73
2022/02/08 07:55:56;;;;;;;9.87;4.87;;;;;;;;;;5116445;28;20991;-72
2022/02/08 07:58:25;;;;;;;9.47;4.83;;;;;;;;;;5120383;28;20465;-73
2022/02/08 08:00:53;;;;;;;7.63;4.50;;;;;;;;;;5110088;28;20444;-73
2022/02/08 08:03:21;;;;;;;19.70;5.47;;;;;;;;;;5120318;28;20537;-72
2022/02/08 08:05:49;;;;;;;9.60;4.30;;;;;;;;;;5124826;27;20866;-74
2022/02/08 08:08:18;;;;;;;14.17;5.10;;;;;;;;;;5129947;27;20435;-74
2022/02/08 08:10:47;;;;;;;9.37;5.27;;;;;;;;;;5130321;27;20484;-74
2022/02/08 08:13:18;;;;;;;12.87;4.90;;;;;;;;;;5121049;28;21008;-74
2022/02/08 08:15:50;;;;;;;13.23;4.27;;;;;;;;;;5106823;28;20451;-74
2022/02/08 08:18:26;;;;;;;6.27;3.50;;;;;;;;;;5120819;28;20447;-74
2022/02/08 08:20:54;;;;;;;7.63;4.27;;;;;;;;;;5106793;28;20522;-73
2022/02/08 08:23:22;;;;;;;10.73;4.40;;;;;;;;;;5120886;28;20446;-74
2022/02/08 08:25:51;;;;;;;15.57;5.27;;;;;;;;;;5119990;28;20442;-73
2022/02/08 08:28:19;;;;;;;13.67;5.23;;;;;;;;;;5120817;28;21005;-74
2022/02/08 08:30:47;;;;;;;11.93;5.50;;;;;;;;;;5120601;28;20474;-73
2022/02/08 08:33:15;;;;;;;10.20;5.57;;;;;;;;;;5120531;28;20443;-74
2022/02/08 08:36:03;;;;;;;11.77;4.23;;;;;;;;;;5107235;28;20469;-72
2022/02/08 08:38:33;;;;;;;9.97;4.67;;;;;;;;;;5129749;27;20454;-74
2022/02/08 08:41:08;;;;;;;9.30;4.67;;;;;;;;;;5129664;27;20447;-75
2022/02/08 08:44:01;;;;;;;13.93;5.23;;;;;;;;;;5127886;27;20443;-73
2022/02/08 08:49:36;;;;;;;12.67;4.60;;;;;;;;;;5066503;28;20480;-74
2022/02/08 08:52:04;;;;;;;17.27;5.80;;;;;;;;;;5108172;27;20478;-74
2022/02/08 08:54:32;;;;;;;7.80;4.57;;;;;;;;;;5127907;27;20874;-76
2022/02/08 08:57:01;;;;;;;13.50;4.70;;;;;;;;;;5126033;27;20960;-74
2022/02/08 08:59:30;;;;;;;10.37;4.97;;;;;;;;;;5129131;27;20439;-74
2022/02/08 09:01:58;;;;;;;15.93;5.20;;;;;;;;;;5125807;27;20442;-74
2022/02/08 09:04:32;;;;;;;13.17;5.47;;;;;;;;;;5128383;27;20438;-74
2022/02/08 09:07:00;;;;;;;25.13;10.03;;;;;;;;;;5130680;27;20468;-75
2022/02/08 09:09:30;;;;;;;17.57;7.43;;;;;;;;;;5119144;27;20449;-75
2022/02/08 09:12:11;;;;;;;28.40;9.60;;;;;;;;;;5107411;28;20538;-76
2022/02/08 09:14:51;;;;;;;14.57;6.73;;;;;;;;;;5119829;28;20517;-76
2022/02/08 09:23:15;;;;;;;8.10;4.67;;;;;;;;;;5111291;28;20443;-76
2022/02/08 09:28:40;;;;;;;13.67;5.70;;;;;;;;;;5114587;27;20449;-76
2022/02/08 09:31:14;;;;;;;15.47;5.60;;;;;;;;;;5109151;28;20486;-75
2022/02/08 09:33:43;;;;;;;10.37;5.30;;;;;;;;;;5118098;28;20450;-76
2022/02/08 09:36:11;;;;;;;14.87;5.00;;;;;;;;;;5119059;28;20550;-77
2022/02/08 09:38:39;;;;;;;9.70;5.33;;;;;;;;;;5119511;28;20438;-76
2022/02/08 09:41:08;;;;;;;12.23;4.87;;;;;;;;;;5108251;28;20942;-76
2022/02/08 09:43:37;;;;;;;12.63;4.50;;;;;;;;;;5103315;28;20205;-76
2022/02/08 09:46:07;;;;;;;12.17;4.33;;;;;;;;;;5119391;28;20255;-76
2022/02/08 09:48:42;;;;;;;8.40;3.63;;;;;;;;;;5118635;28;20442;-76
2022/02/08 09:51:12;;;;;;;15.03;4.13;;;;;;;;;;5117557;28;20541;-76
2022/02/08 09:53:41;;;;;;;8.23;3.00;;;;;;;;;;5113766;28;20479;-77
2022/02/08 09:56:10;;;;;;;12.27;3.80;;;;;;;;;;5117011;28;20221;-76
2022/02/08 09:58:38;;;;;;;4.90;2.83;;;;;;;;;;5116231;27;20201;-76
2022/02/08 10:01:07;;;;;;;12.77;3.83;;;;;;;;;;5118896;28;20443;-76
2022/02/08 10:03:38;;;;;;;5.97;2.93;;;;;;;;;;5118358;28;20446;-76
2022/02/08 10:06:06;;;;;;;4.87;2.70;;;;;;;;;;5118712;28;20545;-75
2022/02/08 10:08:34;;;;;;;11.70;2.93;;;;;;;;;;5118113;28;20446;-76
2022/02/08 10:11:11;;;;;;;9.17;2.97;;;;;;;;;;5118910;28;20450;-76
2022/02/08 10:13:56;;;;;;;4.93;2.77;;;;;;;;;;5103398;28;20482;-76
2022/02/08 10:22:06;;;;;;;9.10;2.30;;;;;;;;;;5116170;28;20197;-76
2022/02/08 10:24:47;;;;;;;7.80;2.43;;;;;;;;;;5108218;28;20626;-76
2022/02/08 10:27:19;;;;;;;8.97;2.87;;;;;;;;;;5117370;28;20288;-76
2022/02/08 10:30:10;;;;;;;9.33;2.37;;;;;;;;;;5118342;28;20212;-76
2022/02/08 10:38:20;;;;;;;4.97;1.97;;;;;;;;;;5118092;28;20204;-76
2022/02/08 10:40:49;;;;;;;5.87;2.30;;;;;;;;;;5105234;28;20300;-76
2022/02/08 10:43:20;;;;;;;7.07;2.07;;;;;;;;;;5118250;28;20629;-76
2022/02/08 10:45:49;;;;;;;5.70;2.40;;;;;;;;;;5118316;28;20239;-75
2022/02/08 10:48:22;;;;;;;5.03;2.33;;;;;;;;;;5117878;28;20583;-76
2022/02/08 10:50:56;;;;;;;8.53;2.50;;;;;;;;;;5064785;28;20206;-76
2022/02/08 10:53:37;;;;;;;9.93;2.20;;;;;;;;;;5071847;28;20256;-76
2022/02/08 10:56:10;;;;;;;9.83;2.50;;;;;;;;;;5068342;28;20217;-76
2022/02/08 10:58:49;;;;;;;9.63;2.60;;;;;;;;;;5074957;28;20238;-76
2022/02/08 11:01:22;;;;;;;5.87;2.40;;;;;;;;;;5068828;28;20210;-76
2022/02/08 11:03:56;;;;;;;6.37;1.73;;;;;;;;;;5076942;28;20202;-76
2022/02/08 11:06:30;;;;;;;8.30;2.30;;;;;;;;;;5077281;28;20225;-75
2022/02/08 11:09:15;;;;;;;4.47;1.77;;;;;;;;;;5058305;28;20203;-74
2022/02/08 11:12:00;;;;;;;7.20;1.80;;;;;;;;;;5071965;28;20222;-77
2022/02/08 11:17:52;;;;;;;4.33;2.03;;;;;;;;;;5073403;28;20222;-76
2022/02/08 11:20:28;;;;;;;5.13;1.80;;;;;;;;;;5075120;28;20267;-76
2022/02/08 11:23:20;;;;;;;5.07;1.93;;;;;;;;;;5076576;28;20637;-77
2022/02/08 11:25:51;;;;;;;8.10;2.10;;;;;;;;;;5077068;28;20293;-77
2022/02/08 11:28:25;;;;;;;7.47;1.80;;;;;;;;;;5076893;28;20681;-76
2022/02/08 11:31:02;;;;;;;5.90;1.67;;;;;;;;;;5077234;28;20212;-76
2022/02/08 11:33:45;;;;;;;4.17;2.00;;;;;;;;;;5080382;28;20643;-77
2022/02/08 11:39:37;;;;;;;3.17;1.73;;;;;;;;;;5076375;28;20202;-77
2022/02/08 11:48:15;;;;;;;10.40;2.00;;;;;;;;;;5074235;28;20752;-76
2022/02/08 11:51:08;;;;;;;6.33;1.80;;;;;;;;;;5110067;28;20263;-76
2022/02/08 11:53:43;;;;;;;5.70;1.73;;;;;;;;;;5108384;28;20663;-73
2022/02/08 11:56:40;;;;;;;6.13;1.90;;;;;;;;;;5121492;28;20216;-73
2022/02/08 11:59:31;;;;;;;2.47;1.40;;;;;;;;;;5108377;28;20201;-72
2022/02/08 12:02:37;;;;;;;6.43;1.77;;;;;;;;;;5108718;28;20287;-74
2022/02/08 12:05:05;;;;;;;8.90;1.87;;;;;;;;;;5107084;28;20562;-74
2022/02/08 12:07:35;;;;;;;6.83;2.23;;;;;;;;;;5121271;28;20587;-74
2022/02/08 12:10:15;;;;;;;8.43;2.07;;;;;;;;;;5107901;28;20201;-74
2022/02/08 12:13:10;;;;;;;6.23;2.00;;;;;;;;;;5121346;28;20232;-74
2022/02/08 12:28:15;;;;;;;3.67;2.33;;;;;;;;;;5128377;27;20228;-74
2022/02/08 12:33:04;;;;;;;4.30;1.87;;;;;;;;;;5129194;27;20224;-75
2022/02/08 12:56:03;;;;;;;5.00;2.30;;;;;;;;;;5120411;28;20221;-74
2022/02/08 12:58:48;;;;;;;4.47;1.37;;;;;;;;;;5106939;28;20211;-73
2022/02/08 13:01:36;;;;;;;4.27;1.63;;;;;;;;;;5109123;28;20310;-73
2022/02/08 13:04:15;;;;;;;4.83;1.30;;;;;;;;;;5118017;28;20235;-73
2022/02/08 14:03:03;;;;;;;3.13;1.47;;;;;;;;;;5102842;28;20197;-73
2022/02/08 14:08:30;;;;;;;3.27;1.47;;;;;;;;;;5104046;28;20299;-73
2022/02/08 14:16:48;;;;;;;4.97;1.63;;;;;;;;;;5095097;28;20591;-72
2022/02/08 14:19:30;;;;;;;4.70;1.60;;;;;;;;;;5105785;28;20200;-74
2022/02/08 14:22:11;;;;;;;3.93;1.50;;;;;;;;;;5104437;28;20600;-75
2022/02/08 14:25:01;;;;;;;5.30;1.63;;;;;;;;;;5105186;28;20674;-72
2022/02/08 14:30:41;;;;;;;3.43;1.17;;;;;;;;;;5090609;28;20202;-71
2022/02/08 14:33:27;;;;;;;4.23;1.67;;;;;;;;;;5092824;28;20205;-69
2022/02/08 14:36:10;;;;;;;5.13;1.60;;;;;;;;;;5080875;28;20321;-70
2022/02/08 15:06:20;;;;;;;7.43;1.70;;;;;;;;;;5099267;28;20643;-72
2022/02/08 15:08:50;;;;;;;5.70;1.63;;;;;;;;;;5099630;28;20224;-72
2022/02/08 15:11:18;;;;;;;4.53;1.73;;;;;;;;;;5099453;28;20213;-71
2022/02/08 15:13:50;;;;;;;3.87;1.67;;;;;;;;;;5098547;28;20204;-72
2022/02/08 15:16:26;;;;;;;6.00;2.27;;;;;;;;;;5098618;28;20237;-70
2022/02/08 15:18:55;;;;;;;14.67;2.27;;;;;;;;;;5092831;28;20642;-71
2022/02/08 15:21:29;;;;;;;4.13;2.00;;;;;;;;;;5080889;28;20244;-71
2022/02/08 15:23:57;;;;;;;3.80;1.60;;;;;;;;;;5079291;28;20209;-71
2022/02/08 15:26:47;;;;;;;4.20;1.50;;;;;;;;;;5091365;28;20213;-72
2022/02/08 15:29:17;;;;;;;4.30;1.30;;;;;;;;;;5079124;28;20206;-72
2022/02/08 15:31:45;;;;;;;1.93;1.23;;;;;;;;;;5079454;28;20641;-71
2022/02/08 15:34:13;;;;;;;5.53;1.43;;;;;;;;;;5079189;28;20210;-72
2022/02/08 15:36:40;;;;;;;3.40;1.77;;;;;;;;;;5090469;28;20217;-72
2022/02/08 15:39:09;;;;;;;4.43;1.30;;;;;;;;;;5084058;28;20217;-72
2022/02/08 15:41:39;;;;;;;6.33;1.47;;;;;;;;;;5078750;28;20199;-72
2022/02/08 15:44:08;;;;;;;6.57;1.70;;;;;;;;;;5094940;28;20229;-72
2022/02/08 15:46:38;;;;;;;6.03;2.33;;;;;;;;;;5099147;28;20225;-72
2022/02/08 15:49:06;;;;;;;7.00;2.30;;;;;;;;;;5082912;28;20202;-72
2022/02/08 15:51:39;;;;;;;3.80;1.80;;;;;;;;;;5086855;28;20691;-70
2022/02/08 15:54:18;;;;;;;6.23;1.80;;;;;;;;;;5082956;28;20201;-71
2022/02/08 15:57:31;;;;;;;6.03;1.50;;;;;;;;;;5090447;28;20221;-69
2022/02/08 16:00:24;;;;;;;3.83;2.00;;;;;;;;;;5092481;28;20266;-69
2022/02/08 16:06:01;;;;;;;4.30;1.70;;;;;;;;;;5091501;28;20201;-73
2022/02/08 16:08:33;;;;;;;10.20;2.30;;;;;;;;;;5088340;28;20653;-73
2022/02/08 16:11:10;;;;;;;5.90;2.03;;;;;;;;;;5091318;28;20226;-73
2022/02/08 16:13:48;;;;;;;8.63;2.50;;;;;;;;;;5091400;28;20670;-73
2022/02/08 16:16:34;;;;;;;2.30;1.63;;;;;;;;;;5078065;28;20241;-73
2022/02/08 16:19:13;;;;;;;5.80;1.60;;;;;;;;;;5089819;28;20232;-73
2022/02/08 16:22:17;;;;;;;3.37;1.53;;;;;;;;;;5082913;28;20623;-73
2022/02/08 16:24:53;;;;;;;5.47;1.40;;;;;;;;;;5098016;28;20220;-73
2022/02/08 16:27:33;;;;;;;5.23;1.90;;;;;;;;;;5097580;28;20217;-72
2022/02/08 16:47:30;;;;;;;3.70;1.90;;;;;;;;;;5077464;28;20701;-73
2022/02/08 16:49:59;;;;;;;6.53;1.60;;;;;;;;;;5077237;28;20714;-70
2022/02/08 16:52:50;;;;;;;7.27;2.00;;;;;;;;;;5077550;28;20213;-73
2022/02/08 16:55:32;;;;;;;6.00;2.33;;;;;;;;;;5081696;28;20231;-73
2022/02/08 16:58:12;;;;;;;7.17;2.40;;;;;;;;;;5082448;28;20629;-72
2022/02/08 17:00:44;;;;;;;5.30;2.53;;;;;;;;;;5085939;28;20421;-72
2022/02/08 17:03:21;;;;;;;6.90;2.90;;;;;;;;;;5086915;28;20202;-73
2022/02/08 17:05:50;;;;;;;6.97;2.77;;;;;;;;;;5087549;28;20204;-73
2022/02/08 17:08:22;;;;;;;7.53;3.23;;;;;;;;;;5089169;28;20243;-74
2022/02/08 17:10:53;;;;;;;9.60;2.97;;;;;;;;;;5090620;28;20238;-73
2022/02/08 17:13:46;;;;;;;10.40;3.00;;;;;;;;;;5085382;28;20237;-73
2022/02/08 17:16:21;;;;;;;11.27;3.20;;;;;;;;;;5078799;28;20238;-73
2022/02/08 17:46:37;;;;;;;7.43;3.63;;;;;;;;;;5087277;28;20217;-74
2022/02/08 17:49:06;;;;;;;6.50;3.20;;;;;;;;;;5088800;28;20292;-73
2022/02/08 17:51:34;;;;;;;6.70;3.60;;;;;;;;;;5087942;28;20216;-74
2022/02/08 17:54:12;;;;;;;9.00;3.67;;;;;;;;;;5088968;28;20221;-74
2022/02/08 17:56:43;;;;;;;7.57;3.17;;;;;;;;;;5088773;28;20228;-74
2022/02/08 17:59:11;;;;;;;10.00;3.60;;;;;;;;;;5090206;28;20218;-74
2022/02/08 18:01:39;;;;;;;10.33;4.27;;;;;;;;;;5088148;28;20211;-73
2022/02/08 18:04:07;;;;;;;7.80;3.87;;;;;;;;;;5089564;28;20248;-74
2022/02/08 18:06:35;;;;;;;7.73;3.17;;;;;;;;;;5091183;28;20680;-73
2022/02/08 18:09:03;;;;;;;9.97;4.10;;;;;;;;;;5090954;28;20253;-73
2022/02/08 18:11:37;;;;;;;7.87;3.60;;;;;;;;;;5089461;28;20202;-74
2022/02/08 18:14:09;;;;;;;8.27;3.83;;;;;;;;;;5090946;28;20204;-74
2022/02/08 18:16:37;;;;;;;7.87;3.67;;;;;;;;;;5089121;28;20225;-74
2022/02/08 18:19:12;;;;;;;13.70;4.53;;;;;;;;;;5091428;28;20225;-73
2022/02/08 18:21:47;;;;;;;5.07;3.33;;;;;;;;;;5090305;28;20236;-74
2022/02/08 18:24:47;;;;;;;7.20;3.13;;;;;;;;;;5093988;28;20197;-74
2022/02/08 18:27:28;;;;;;;13.17;4.03;;;;;;;;;;5094161;28;20283;-73
2022/02/08 18:58:06;;;;;;;15.07;4.93;;;;;;;;;;5096701;28;20776;-73
2022/02/08 19:03:59;;;;;;;13.50;5.17;;;;;;;;;;5083145;28;20197;-74
2022/02/08 19:09:22;;;;;;;14.33;5.07;;;;;;;;;;5099375;28;20285;-75
2022/02/08 19:12:14;;;;;;;9.00;4.40;;;;;;;;;;5099543;28;20309;-74
2022/02/08 19:17:42;;;;;;;17.57;6.33;;;;;;;;;;5078838;28;20717;-74
2022/02/08 19:20:16;;;;;;;12.00;6.00;;;;;;;;;;5097518;28;20225;-74
2022/02/08 19:22:44;;;;;;;10.47;5.20;;;;;;;;;;5099109;28;20212;-75
2022/02/08 19:25:13;;;;;;;20.27;6.07;;;;;;;;;;5083077;28;20251;-74
2022/02/08 19:27:43;;;;;;;14.97;5.73;;;;;;;;;;5089033;28;20222;-74
2022/02/08 19:30:12;;;;;;;12.47;5.40;;;;;;;;;;5081367;28;20202;-74
2022/02/08 19:32:41;;;;;;;15.33;5.57;;;;;;;;;;5089831;28;20206;-75
2022/02/08 19:35:15;;;;;;;9.63;6.00;;;;;;;;;;5081959;28;20201;-74
2022/02/08 19:37:45;;;;;;;13.70;5.87;;;;;;;;;;5098975;28;20581;-74
2022/02/08 19:40:16;;;;;;;11.33;5.30;;;;;;;;;;5098264;28;20278;-75
2022/02/08 19:42:48;;;;;;;10.53;4.70;;;;;;;;;;5098976;28;20263;-75
2022/02/08 19:45:22;;;;;;;10.33;5.20;;;;;;;;;;5094410;28;20615;-74
2022/02/08 19:47:53;;;;;;;12.70;5.73;;;;;;;;;;5078324;28;20222;-74
2022/02/08 19:50:29;;;;;;;13.47;5.37;;;;;;;;;;5078346;28;20293;-74
2022/02/08 19:53:00;;;;;;;12.37;5.93;;;;;;;;;;5077639;28;20209;-74
2022/02/08 19:55:42;;;;;;;11.57;5.27;;;;;;;;;;5082883;28;20213;-73
2022/02/08 19:58:21;;;;;;;9.60;5.47;;;;;;;;;;5089310;28;20394;-72
2022/02/08 20:00:58;;;;;;;14.07;5.60;;;;;;;;;;5085642;28;20214;-73
2022/02/08 20:03:34;;;;;;;19.80;5.73;;;;;;;;;;5091967;28;20197;-71
2022/02/08 20:06:04;;;;;;;13.47;5.40;;;;;;;;;;5088562;28;20227;-71
2022/02/08 20:08:33;;;;;;;10.97;5.93;;;;;;;;;;5094215;28;20285;-71
2022/02/08 20:11:02;;;;;;;15.23;6.13;;;;;;;;;;5098625;28;20209;-72
2022/02/08 20:13:30;;;;;;;9.73;5.57;;;;;;;;;;5097096;28;20246;-72
2022/02/08 20:16:00;;;;;;;9.27;6.27;;;;;;;;;;5098373;28;20253;-72
2022/02/08 20:18:30;;;;;;;16.53;7.03;;;;;;;;;;5083225;28;20204;-71
2022/02/08 20:20:58;;;;;;;12.80;6.20;;;;;;;;;;5084552;28;20236;-72
2022/02/08 20:23:35;;;;;;;14.17;7.57;;;;;;;;;;5096579;28;20214;-72
2022/02/08 20:26:04;;;;;;;19.40;8.00;;;;;;;;;;5097541;28;20258;-71
2022/02/08 20:28:38;;;;;;;15.20;7.33;;;;;;;;;;5091410;28;20292;-72
2022/02/08 20:31:10;;;;;;;10.97;7.17;;;;;;;;;;5077464;28;20202;-71
2022/02/08 20:33:40;;;;;;;14.33;7.20;;;;;;;;;;5077848;28;20212;-72
2022/02/08 20:36:09;;;;;;;15.43;7.00;;;;;;;;;;5077145;28;20225;-71
2022/02/08 20:38:40;;;;;;;27.83;9.60;;;;;;;;;;5091436;28;20726;-71